createdAt,value
2018-11-23T00:00:32.531Z,100703.32
2018-11-23T00:03:01.961Z,100709.95
2018-11-23T00:05:30.918Z,100712.03
2018-11-23T00:08:00.281Z,100707.06
2018-11-23T00:10:30.576Z,100704.20
2018-11-23T00:12:59.520Z,100705.97
2018-11-23T00:15:28.734Z,100710.91
2018-11-23T00:17:57.695Z,100708.63
2018-11-23T00:20:27.812Z,100707.02
2018-11-23T00:22:56.751Z,100707.09
2018-11-23T00:25:26.581Z,100709.53
2018-11-23T00:27:56.212Z,100709.82
2018-11-23T00:30:26.365Z,100712.34
2018-11-23T00:32:55.315Z,100714.78
2018-11-23T00:35:26.462Z,100709.48
2018-11-23T00:37:55.813Z,100717.36
2018-11-23T00:40:30.883Z,100713.06
2018-11-23T00:43:00.134Z,100711.06
2018-11-23T00:45:29.231Z,100715.77
2018-11-23T00:47:59.734Z,100716.00
2018-11-23T00:50:28.981Z,100711.95
2018-11-23T00:52:59.078Z,100715.77
2018-11-23T00:55:28.698Z,100718.18
2018-11-23T00:57:57.681Z,100713.92
2018-11-23T01:00:27.935Z,100710.10
2018-11-23T01:02:58.123Z,100711.14
2018-11-23T01:05:27.447Z,100714.03
2018-11-23T01:07:58.853Z,100716.88
2018-11-23T01:10:28.998Z,100715.40
2018-11-23T01:12:58.494Z,100718.46
2018-11-23T01:15:27.441Z,100709.30
2018-11-23T01:17:56.411Z,100707.30
2018-11-23T01:20:26.323Z,100704.23
2018-11-23T01:22:56.114Z,100703.12
2018-11-23T01:25:26.209Z,100707.69
2018-11-23T01:27:55.634Z,100706.65
2018-11-23T01:30:26.861Z,100699.34
2018-11-23T01:32:55.822Z,100695.53
2018-11-23T01:35:24.758Z,100698.86
2018-11-23T01:37:53.702Z,100697.87
2018-11-23T01:40:25.722Z,100697.66
2018-11-23T01:42:55.241Z,100693.17
2018-11-23T01:45:24.258Z,100694.21
2018-11-23T01:47:53.230Z,100688.47
2018-11-23T01:50:23.556Z,100692.39
2018-11-23T01:52:53.071Z,100695.14
2018-11-23T01:55:22.879Z,100690.34
2018-11-23T01:57:51.862Z,100688.70
2018-11-23T02:00:22.386Z,100688.49
2018-11-23T02:02:52.082Z,100690.03
2018-11-23T02:05:21.023Z,100690.34
2018-11-23T02:07:49.965Z,100692.98
2018-11-23T02:10:19.274Z,100683.64
2018-11-23T02:12:48.256Z,100685.84
2018-11-23T02:15:18.813Z,100691.30
2018-11-23T02:17:48.313Z,100688.78
2018-11-23T02:20:18.344Z,100685.04
2018-11-23T02:22:47.321Z,100684.00
2018-11-23T02:25:16.458Z,100684.37
2018-11-23T02:27:45.420Z,100681.12
2018-11-23T02:30:16.749Z,100678.94
2018-11-23T02:32:45.681Z,100681.27
2018-11-23T02:35:15.258Z,100677.61
2018-11-23T02:37:44.198Z,100670.80
2018-11-23T02:40:14.360Z,100670.20
2018-11-23T02:42:43.466Z,100667.67
2018-11-23T02:45:16.661Z,100664.63
2018-11-23T02:47:46.395Z,100668.16
2018-11-23T02:50:15.302Z,100669.14
2018-11-23T02:52:44.662Z,100676.86
2018-11-23T02:55:14.703Z,100669.56
2018-11-23T02:57:43.833Z,100670.08
2018-11-23T03:00:15.131Z,100676.11
2018-11-23T03:02:44.333Z,100673.84
2018-11-23T03:05:15.366Z,100674.28
2018-11-23T03:07:44.595Z,100674.39
2018-11-23T03:10:14.382Z,100674.00
2018-11-23T03:12:44.000Z,100666.33
2018-11-23T03:15:14.821Z,100675.55
2018-11-23T03:17:44.341Z,100672.09
2018-11-23T03:20:15.094Z,100671.22
2018-11-23T03:22:44.286Z,100675.71
2018-11-23T03:25:13.773Z,100671.05
2018-11-23T03:27:42.703Z,100674.74
2018-11-23T03:30:17.704Z,100681.31
2018-11-23T03:32:47.629Z,100686.30
2018-11-23T03:35:17.033Z,100685.08
2018-11-23T03:37:46.459Z,100683.22
2018-11-23T03:40:15.429Z,100679.11
2018-11-23T03:42:44.399Z,100671.31
2018-11-23T03:45:13.961Z,100677.62
2018-11-23T03:47:43.332Z,100678.29
2018-11-23T03:50:13.347Z,100677.28
2018-11-23T03:52:42.660Z,100672.78
2018-11-23T03:55:11.637Z,100675.62
2018-11-23T03:57:40.578Z,100681.89
2018-11-23T04:00:17.356Z,100681.22
2018-11-23T04:02:44.793Z,100673.48
2018-11-23T04:05:13.770Z,100677.11
2018-11-23T04:07:42.761Z,100674.08
2018-11-23T04:10:13.285Z,100675.55
2018-11-23T04:12:42.591Z,100682.09
2018-11-23T04:15:12.394Z,100681.66
2018-11-23T04:17:41.821Z,100682.62
2018-11-23T04:20:12.454Z,100677.32
2018-11-23T04:22:42.080Z,100676.59
2018-11-23T04:25:11.632Z,100675.13
2018-11-23T04:27:40.758Z,100669.73
2018-11-23T04:30:11.392Z,100666.42
2018-11-23T04:32:40.365Z,100668.00
2018-11-23T04:35:11.419Z,100666.02
2018-11-23T04:37:40.417Z,100663.52
2018-11-23T04:40:10.537Z,100659.67
2018-11-23T04:42:39.735Z,100662.32
2018-11-23T04:45:09.037Z,100656.88
2018-11-23T04:47:38.545Z,100660.86
2018-11-23T04:50:08.883Z,100655.48
2018-11-23T04:52:37.807Z,100656.22
2018-11-23T04:55:07.765Z,100657.34
2018-11-23T04:57:36.684Z,100662.04
2018-11-23T05:00:09.962Z,100662.98
2018-11-23T05:02:38.957Z,100655.34
2018-11-23T05:05:09.061Z,100654.23
2018-11-23T05:07:37.991Z,100652.75
2018-11-23T05:10:09.034Z,100650.84
2018-11-23T05:12:38.190Z,100654.51
2018-11-23T05:15:08.123Z,100655.17
2018-11-23T05:17:37.211Z,100649.59
2018-11-23T05:20:07.046Z,100654.89
2018-11-23T05:22:36.267Z,100658.06
2018-11-23T05:25:05.717Z,100658.80
2018-11-23T05:27:34.742Z,100660.33
2018-11-23T05:30:03.727Z,100663.50
2018-11-23T05:32:32.668Z,100665.70
2018-11-23T05:35:01.616Z,100669.55
2018-11-23T05:37:30.686Z,100670.87
2018-11-23T05:39:59.743Z,100674.84
2018-11-23T05:42:28.706Z,100668.50
2018-11-23T05:44:57.676Z,100672.27
2018-11-23T05:47:26.664Z,100677.05
2018-11-23T05:49:55.598Z,100675.65
2018-11-23T05:52:24.553Z,100674.25
2018-11-23T05:54:53.917Z,100674.46
2018-11-23T05:57:22.886Z,100671.45
2018-11-23T05:59:51.909Z,100669.69
2018-11-23T06:02:20.854Z,100671.30
2018-11-23T06:04:49.790Z,100676.33
2018-11-23T06:07:18.718Z,100676.63
2018-11-23T06:09:47.686Z,100680.58
2018-11-23T06:12:16.649Z,100678.45
2018-11-23T06:14:45.647Z,100683.69
2018-11-23T06:17:14.895Z,100684.34
2018-11-23T06:19:43.842Z,100684.13
2018-11-23T06:22:12.791Z,100687.95
2018-11-23T06:24:41.771Z,100683.59
2018-11-23T06:27:10.767Z,100684.11
2018-11-23T06:29:39.723Z,100679.26
2018-11-23T06:32:20.075Z,100675.12
2018-11-23T06:34:49.074Z,100676.02
2018-11-23T06:37:18.053Z,100675.12
2018-11-23T06:39:47.086Z,100676.23
2018-11-23T06:42:16.049Z,100678.67
2018-11-23T06:44:45.337Z,100673.73
2018-11-23T06:47:14.373Z,100670.48
2018-11-23T06:49:44.535Z,100664.09
2018-11-23T06:52:13.863Z,100666.89
2018-11-23T06:54:42.792Z,100664.97
2018-11-23T06:57:11.749Z,100670.14
2018-11-23T06:59:40.680Z,100673.31
2018-11-23T07:02:09.606Z,100680.75
2018-11-23T07:04:38.606Z,100677.51
2018-11-23T07:07:07.793Z,100681.34
2018-11-23T07:09:36.717Z,100682.95
2018-11-23T07:12:05.798Z,100681.03
2018-11-23T07:14:34.753Z,100681.91
2018-11-23T07:17:03.731Z,100684.50
2018-11-23T07:19:32.678Z,100683.03
2018-11-23T07:22:01.618Z,100690.11
2018-11-23T07:24:30.575Z,100693.56
2018-11-23T07:26:59.525Z,100694.30
2018-11-23T07:29:28.462Z,100692.00
2018-11-23T07:31:57.439Z,100684.73
2018-11-23T07:34:26.514Z,100681.04
2018-11-23T07:36:55.527Z,100692.45
2018-11-23T07:39:36.055Z,100686.20
2018-11-23T07:42:23.709Z,100685.47
2018-11-23T07:44:52.737Z,100681.31
2018-11-23T07:47:21.702Z,100683.38
2018-11-23T07:49:50.667Z,100678.84
2018-11-23T07:52:19.609Z,100673.88
2018-11-23T07:54:48.526Z,100673.67
2018-11-23T07:57:17.454Z,100666.30
2018-11-23T07:59:46.394Z,100672.48
2018-11-23T08:02:15.343Z,100678.24
2018-11-23T08:04:44.405Z,100676.74
2018-11-23T08:07:13.340Z,100668.57
2018-11-23T08:09:42.562Z,100676.08
2018-11-23T08:12:11.495Z,100677.99
2018-11-23T08:14:40.546Z,100675.41
2018-11-23T08:17:09.537Z,100659.55
2018-11-23T08:19:38.768Z,100666.97
2018-11-23T08:22:07.739Z,100665.65
2018-11-23T08:24:36.763Z,100661.17
2018-11-23T08:27:05.947Z,100666.53
2018-11-23T08:29:34.901Z,100664.63
2018-11-23T08:32:03.894Z,100666.23
2018-11-23T08:34:32.833Z,100661.37
2018-11-23T08:37:01.753Z,100664.55
2018-11-23T08:39:30.706Z,100669.39
2018-11-23T08:41:59.774Z,100662.67
2018-11-23T08:44:28.763Z,100666.38
2018-11-23T08:46:57.703Z,100664.50
2018-11-23T08:49:26.669Z,100666.48
2018-11-23T08:51:55.614Z,100671.48
2018-11-23T08:54:24.535Z,100672.52
2018-11-23T08:56:53.490Z,100669.28
2018-11-23T08:59:22.474Z,100670.67
2018-11-23T09:01:51.429Z,100671.07
2018-11-23T09:04:20.554Z,100675.42
2018-11-23T09:06:49.621Z,100675.45
2018-11-23T09:09:18.584Z,100662.27
2018-11-23T09:11:47.649Z,100664.29
2018-11-23T09:14:16.583Z,100663.08
2018-11-23T09:16:45.517Z,100669.48
2018-11-23T09:19:14.507Z,100670.98
2018-11-23T09:21:43.463Z,100665.62
2018-11-23T09:24:12.401Z,100664.19
2018-11-23T09:26:41.342Z,100662.24
2018-11-23T09:29:10.274Z,100665.42
2018-11-23T09:31:39.205Z,100664.56
2018-11-23T09:34:08.130Z,100665.23
2018-11-23T09:36:37.083Z,100654.46
2018-11-23T09:39:07.712Z,100656.33
2018-11-23T09:41:36.651Z,100653.99
2018-11-23T09:44:05.638Z,100648.23
2018-11-23T09:46:34.594Z,100643.09
2018-11-23T09:49:03.522Z,100639.91
2018-11-23T09:51:32.597Z,100630.74
2018-11-23T09:54:01.528Z,100629.40
2018-11-23T09:56:30.503Z,100618.56
2018-11-23T09:58:59.485Z,100612.01
2018-11-23T10:01:28.679Z,100611.44
2018-11-23T10:03:57.618Z,100603.30
2018-11-23T10:06:26.553Z,100605.62
2018-11-23T10:08:55.888Z,100602.80
2018-11-23T10:11:24.804Z,100606.70
2018-11-23T10:13:53.748Z,100603.17
2018-11-23T10:16:22.726Z,100601.22
2018-11-23T10:18:51.924Z,100599.69
2018-11-23T10:21:21.088Z,100593.95
2018-11-23T10:23:50.116Z,100590.88
2018-11-23T10:26:19.115Z,100586.70
2018-11-23T10:28:48.056Z,100591.61
2018-11-23T10:31:23.370Z,100585.95
2018-11-23T10:33:52.583Z,100591.34
2018-11-23T10:36:21.512Z,100592.17
2018-11-23T10:38:50.455Z,100587.34
2018-11-23T10:41:19.400Z,100590.13
2018-11-23T10:43:48.372Z,100580.02
2018-11-23T10:46:17.353Z,100577.91
2018-11-23T10:48:46.293Z,100577.05
2018-11-23T10:51:15.467Z,100574.02
2018-11-23T10:56:13.426Z,100560.91
2018-11-23T10:58:42.364Z,100556.58
2018-11-23T11:01:16.698Z,100551.19
2018-11-23T11:03:51.327Z,100555.56
2018-11-23T11:06:25.632Z,100563.98
2018-11-23T11:08:54.606Z,100544.84
2018-11-23T11:11:23.540Z,100548.32
2018-11-23T11:13:52.475Z,100551.56
2018-11-23T11:16:21.443Z,100549.06
2018-11-23T11:18:50.570Z,100543.89
2018-11-23T11:21:19.593Z,100553.30
2018-11-23T11:23:48.578Z,100538.37
2018-11-23T11:26:17.531Z,100535.99
2018-11-23T11:28:46.619Z,100525.98
2018-11-23T11:31:15.566Z,100523.14
2018-11-23T11:33:44.527Z,100522.05
2018-11-23T11:36:13.506Z,100517.50
2018-11-23T11:38:42.435Z,100521.52
2018-11-23T11:41:11.375Z,100519.67
2018-11-23T11:43:40.599Z,100511.89
2018-11-23T11:46:10.372Z,100522.48
2018-11-23T11:48:39.508Z,100510.80
2018-11-23T11:51:09.459Z,100515.73
2018-11-23T11:53:38.399Z,100514.89
2018-11-23T11:56:07.719Z,100514.58
2018-11-23T11:58:36.830Z,100511.65
2018-11-23T12:01:06.006Z,100497.53
2018-11-23T12:03:34.947Z,100496.62
2018-11-23T12:06:03.906Z,100496.55
2018-11-23T12:08:32.926Z,100498.89
2018-11-23T12:11:01.864Z,100493.06
2018-11-23T12:13:30.984Z,100497.19
2018-11-23T12:16:00.144Z,100496.06
2018-11-23T12:18:29.082Z,100491.47
2018-11-23T12:20:58.023Z,100487.48
2018-11-23T12:23:26.983Z,100486.43
2018-11-23T12:25:55.924Z,100485.88
2018-11-23T12:28:24.871Z,100489.34
2018-11-23T12:30:53.848Z,100488.80
2018-11-23T12:33:22.783Z,100483.20
2018-11-23T12:35:51.757Z,100481.20
2018-11-23T12:38:20.795Z,100478.83
2018-11-23T12:40:49.737Z,100483.02
2018-11-23T12:43:18.661Z,100483.53
2018-11-23T12:45:47.622Z,100476.56
2018-11-23T12:48:16.554Z,100480.87
2018-11-23T12:50:45.509Z,100478.85
2018-11-23T12:53:14.443Z,100470.72
2018-11-23T12:55:43.382Z,100471.39
2018-11-23T12:58:12.424Z,100452.83
2018-11-23T13:00:41.381Z,100456.33
2018-11-23T13:03:10.326Z,100455.80
2018-11-23T13:05:39.296Z,100449.45
2018-11-23T13:08:08.267Z,100448.57
2018-11-23T13:10:37.226Z,100443.13
2018-11-23T13:13:06.151Z,100442.91
2018-11-23T13:15:35.149Z,100444.41
2018-11-23T13:18:04.094Z,100452.22
2018-11-23T13:20:33.081Z,100446.16
2018-11-23T13:23:02.076Z,100446.39
2018-11-23T13:25:32.307Z,100441.61
2018-11-23T13:28:01.493Z,100449.37
2018-11-23T13:30:34.615Z,100447.86
2018-11-23T13:33:03.557Z,100437.47
2018-11-23T13:35:32.524Z,100444.50
2018-11-23T13:38:01.473Z,100429.70
2018-11-23T13:40:30.922Z,100434.92
2018-11-23T13:43:00.740Z,100449.20
2018-11-23T13:45:31.156Z,100446.98
2018-11-23T13:48:00.131Z,100452.08
2018-11-23T13:50:29.222Z,100437.96
2018-11-23T13:52:59.668Z,100441.77
2018-11-23T13:55:28.606Z,100441.55
2018-11-23T13:57:57.543Z,100449.04
2018-11-23T14:00:27.993Z,100446.45
2018-11-23T14:02:56.950Z,100453.02
2018-11-23T14:05:27.682Z,100442.72
2018-11-23T14:07:58.451Z,100444.70
2018-11-23T14:10:28.097Z,100438.33
2018-11-23T14:12:58.765Z,100443.04
2018-11-23T14:15:29.709Z,100433.83
2018-11-23T14:17:59.626Z,100446.52
2018-11-23T14:20:28.840Z,100444.38
2018-11-23T14:22:57.799Z,100436.43
2018-11-23T14:25:28.075Z,100440.82
2018-11-23T14:27:57.451Z,100436.22
2018-11-23T14:30:28.127Z,100436.13
2018-11-23T14:32:57.283Z,100438.31
2018-11-23T14:35:28.733Z,100427.45
2018-11-23T14:37:58.956Z,100425.33
2018-11-23T14:40:27.937Z,100419.21
2018-11-23T14:42:57.442Z,100416.36
2018-11-23T14:45:28.043Z,100422.45
2018-11-23T14:47:57.892Z,100417.00
2018-11-23T14:50:28.301Z,100418.66
2018-11-23T14:52:57.720Z,100414.89
2018-11-23T14:55:27.137Z,100419.73
2018-11-23T14:57:56.553Z,100414.02
2018-11-23T15:00:28.236Z,100413.61
2018-11-23T15:02:58.474Z,100412.38
2018-11-23T15:05:27.450Z,100413.44
2018-11-23T15:07:56.645Z,100421.08
2018-11-23T15:10:26.854Z,100428.95
2018-11-23T15:12:57.258Z,100430.73
2018-11-23T15:15:27.787Z,100425.32
2018-11-23T15:17:57.395Z,100433.71
2018-11-23T15:20:30.888Z,100427.77
2018-11-23T15:23:02.427Z,100431.13
2018-11-23T15:25:31.377Z,100429.49
2018-11-23T15:28:00.329Z,100415.73
2018-11-23T15:30:30.699Z,100420.47
2018-11-23T15:32:59.859Z,100418.14
2018-11-23T15:35:29.836Z,100425.47
2018-11-23T15:37:58.827Z,100435.23
2018-11-23T15:40:28.779Z,100432.19
2018-11-23T15:42:59.556Z,100424.98
2018-11-23T15:45:29.572Z,100432.94
2018-11-23T15:47:59.385Z,100422.27
2018-11-23T15:50:37.291Z,100416.38
2018-11-23T15:53:07.662Z,100408.47
2018-11-23T15:55:37.497Z,100421.16
2018-11-23T15:58:08.030Z,100422.12
2018-11-23T16:00:38.357Z,100414.30
2018-11-23T16:03:11.235Z,100421.09
2018-11-23T16:05:40.340Z,100419.64
2018-11-23T16:08:11.259Z,100418.59
2018-11-23T16:10:41.622Z,100420.97
2018-11-23T16:13:12.447Z,100426.22
2018-11-23T16:15:41.366Z,100422.45
2018-11-23T16:18:10.943Z,100423.94
2018-11-23T16:20:41.876Z,100428.66
2018-11-23T16:23:13.334Z,100437.44
2018-11-23T16:25:42.920Z,100432.41
2018-11-23T16:28:12.339Z,100425.73
2018-11-23T16:30:43.493Z,100419.31
2018-11-23T16:33:14.950Z,100415.80
2018-11-23T16:35:44.012Z,100410.13
2018-11-23T16:38:15.323Z,100406.92
2018-11-23T16:40:45.908Z,100408.53
2018-11-23T16:43:15.523Z,100405.29
2018-11-23T16:45:44.862Z,100400.30
2018-11-23T16:48:14.522Z,100393.83
2018-11-23T16:50:44.004Z,100387.35
2018-11-23T16:53:13.144Z,100391.64
2018-11-23T16:55:42.059Z,100385.28
2018-11-23T16:58:12.105Z,100388.98
2018-11-23T17:00:42.356Z,100396.63
2018-11-23T17:03:14.151Z,100384.70
2018-11-23T17:05:47.903Z,100379.92
2018-11-23T17:08:17.359Z,100378.88
2018-11-23T17:10:46.336Z,100373.58
2018-11-23T17:13:15.366Z,100372.93
2018-11-23T17:15:44.287Z,100368.67
2018-11-23T17:18:13.442Z,100370.95
2018-11-23T17:20:42.614Z,100371.42
2018-11-23T17:23:12.436Z,100376.88
2018-11-23T17:25:41.400Z,100381.16
2018-11-23T17:28:11.157Z,100380.79
2018-11-23T17:30:40.234Z,100385.81
2018-11-23T17:33:09.176Z,100388.00
2018-11-23T17:35:38.159Z,100395.09
2018-11-23T17:38:07.238Z,100394.04
2018-11-23T17:40:37.963Z,100392.78
2018-11-23T17:43:07.153Z,100394.10
2018-11-23T17:47:05.590Z,100392.50
2018-11-23T17:49:34.547Z,100385.35
2018-11-23T17:52:03.494Z,100389.05
2018-11-23T17:54:32.470Z,100391.52
2018-11-23T17:57:01.418Z,100389.70
2018-11-23T17:59:38.617Z,100385.72
2018-11-23T18:02:07.538Z,100386.98
2018-11-23T18:04:36.472Z,100381.50
2018-11-23T18:07:05.441Z,100384.34
2018-11-23T18:09:34.445Z,100379.09
2018-11-23T18:12:03.542Z,100379.77
2018-11-23T18:14:32.555Z,100377.25
2018-11-23T18:17:01.531Z,100375.92
2018-11-23T18:19:30.511Z,100379.03
2018-11-23T18:21:59.474Z,100373.15
2018-11-23T18:24:28.414Z,100366.95
2018-11-23T18:26:57.350Z,100361.16
2018-11-23T18:29:26.351Z,100355.80
2018-11-23T18:31:55.592Z,100349.05
2018-11-23T18:34:24.633Z,100344.80
2018-11-23T18:36:53.576Z,100340.88
2018-11-23T18:39:22.521Z,100344.58
2018-11-23T18:41:51.481Z,100333.09
2018-11-23T18:44:20.439Z,100334.88
2018-11-23T18:46:49.377Z,100330.00
2018-11-23T18:49:18.320Z,100330.96
2018-11-23T18:51:47.264Z,100321.04
2018-11-23T18:54:16.200Z,100317.12
2018-11-23T18:56:45.141Z,100317.59
2018-11-23T18:59:14.123Z,100313.15
2018-11-23T19:01:43.038Z,100301.28
2018-11-23T19:04:12.004Z,100303.14
2018-11-23T19:06:40.928Z,100311.73
2018-11-23T19:09:10.159Z,100309.98
2018-11-23T19:11:39.328Z,100308.80
2018-11-23T19:14:08.599Z,100304.41
2018-11-23T19:16:37.749Z,100306.47
2018-11-23T19:19:07.477Z,100304.92
2018-11-23T19:21:36.415Z,100295.13
2018-11-23T19:24:05.630Z,100292.20
2018-11-23T19:26:34.563Z,100297.95
2018-11-23T19:29:03.523Z,100289.36
2018-11-23T19:31:32.510Z,100279.86
2018-11-23T19:34:02.329Z,100285.38
2018-11-23T19:36:31.880Z,100278.77
2018-11-23T19:39:01.000Z,100273.41
2018-11-23T19:41:30.869Z,100263.50
2018-11-23T19:43:59.847Z,100270.65
2018-11-23T19:46:29.025Z,100273.19
2018-11-23T19:48:58.612Z,100265.02
2018-11-23T19:51:27.873Z,100262.11
2018-11-23T19:53:56.909Z,100256.98
2018-11-23T19:56:25.858Z,100259.62
2018-11-23T19:58:55.207Z,100256.07
2018-11-23T20:01:24.152Z,100245.31
2018-11-23T20:03:53.602Z,100242.66
2018-11-23T20:06:22.619Z,100244.56
2018-11-23T20:08:51.584Z,100243.19
2018-11-23T20:11:20.571Z,100247.16
2018-11-23T20:13:49.623Z,100236.47
2018-11-23T20:16:18.625Z,100238.73
2018-11-23T20:18:47.625Z,100237.69
2018-11-23T20:21:16.904Z,100230.84
2018-11-23T20:23:45.874Z,100233.49
2018-11-23T20:26:14.967Z,100230.27
2018-11-23T20:28:43.918Z,100221.89
2018-11-23T20:31:12.935Z,100220.52
2018-11-23T20:33:41.932Z,100225.76
2018-11-23T20:36:10.987Z,100218.64
2018-11-23T20:38:39.991Z,100214.77
2018-11-23T20:41:09.027Z,100214.72
2018-11-23T20:43:38.138Z,100210.16
2018-11-23T20:46:07.226Z,100207.05
2018-11-23T20:48:36.178Z,100204.34
2018-11-23T20:51:05.366Z,100204.55
2018-11-23T20:53:35.121Z,100196.11
2018-11-23T20:56:05.165Z,100196.28
2018-11-23T20:58:34.152Z,100188.96
2018-11-23T21:01:03.227Z,100183.25
2018-11-23T21:03:34.305Z,100179.58
2018-11-23T21:06:05.124Z,100173.23
2018-11-23T21:08:35.985Z,100167.93
2018-11-23T21:11:05.026Z,100169.03
2018-11-23T21:13:34.055Z,100166.19
2018-11-23T21:16:03.052Z,100168.03
2018-11-23T21:18:31.961Z,100162.84
2018-11-23T21:21:00.906Z,100158.02
2018-11-23T21:23:29.874Z,100156.16
2018-11-23T21:25:58.847Z,100144.81
2018-11-23T21:28:27.769Z,100145.97
2018-11-23T21:30:56.911Z,100134.89
2018-11-23T21:33:25.850Z,100131.11
2018-11-23T21:35:54.778Z,100131.20
2018-11-23T21:38:23.710Z,100125.02
2018-11-23T21:40:58.014Z,100123.03
2018-11-23T21:43:26.950Z,100129.17
2018-11-23T21:45:55.915Z,100130.09
2018-11-23T21:48:24.847Z,100134.39
2018-11-23T21:50:53.795Z,100127.84
2018-11-23T21:53:22.734Z,100130.23
2018-11-23T21:55:51.681Z,100121.36
2018-11-23T21:58:20.966Z,100129.06
2018-11-23T22:00:49.941Z,100127.41
2018-11-23T22:03:18.944Z,100130.91
2018-11-23T22:05:47.927Z,100134.62
2018-11-23T22:08:16.871Z,100136.79
2018-11-23T22:10:45.811Z,100131.16
2018-11-23T22:13:14.730Z,100130.16
2018-11-23T22:15:43.686Z,100133.96
2018-11-23T22:18:12.838Z,100131.05
2018-11-23T22:20:41.795Z,100124.38
2018-11-23T22:23:10.779Z,100122.25
2018-11-23T22:25:39.765Z,100116.77
2018-11-23T22:28:08.708Z,100117.09
2018-11-23T22:30:37.876Z,100116.59
2018-11-23T22:33:09.301Z,100110.53
2018-11-23T22:35:39.022Z,100108.20
2018-11-23T22:38:07.978Z,100105.59
2018-11-23T22:40:36.983Z,100104.13
2018-11-23T22:43:06.546Z,100095.64
2018-11-23T22:45:35.510Z,100091.05
2018-11-23T22:48:04.475Z,100084.98
2018-11-23T22:50:33.374Z,100081.27
2018-11-23T22:53:02.341Z,100095.06
2018-11-23T22:55:31.452Z,100088.06
2018-11-23T22:58:00.451Z,100080.33
2018-11-23T23:00:34.830Z,100077.11
2018-11-23T23:03:04.122Z,100075.55
2018-11-23T23:05:32.979Z,100065.66
2018-11-23T23:08:01.910Z,100073.86
2018-11-23T23:10:30.865Z,100074.27
2018-11-23T23:12:59.794Z,100067.87
2018-11-23T23:15:28.726Z,100066.58
2018-11-23T23:17:57.821Z,100066.58
2018-11-23T23:20:26.790Z,100069.80
2018-11-23T23:22:55.751Z,100050.70
2018-11-23T23:25:24.680Z,100055.21
2018-11-23T23:27:53.622Z,100057.45
2018-11-23T23:30:22.573Z,100049.45
2018-11-23T23:32:51.511Z,100049.95
2018-11-23T23:35:20.449Z,100049.19
2018-11-23T23:37:49.406Z,100034.06
2018-11-23T23:40:18.612Z,100034.33
2018-11-23T23:42:48.055Z,100024.02
2018-11-23T23:45:17.848Z,100014.31
2018-11-23T23:47:46.825Z,100010.56
2018-11-23T23:50:17.751Z,100010.36
2018-11-23T23:52:46.727Z,100011.73
2018-11-23T23:55:15.673Z,100024.02
2018-11-23T23:57:45.385Z,100019.87
